Valley Peak, Santa Cruz Island Reserve, California Weather observations

Data are for 10 minute period ending at time listed.
 Day   Time   Solar   Ave.   Ave.  Ave.  Vector  Max.   Baro.   Total    
  of    of     Rad.   Air    Rel.  Wind   Wind   Wind  Press.  Precip.   
Year   Day            Temp.  Hum.  Speed  Dir.   Gust                    
2015   (PST)  Kw/m2    F      %     mph   deg.    mph    mb.     in.     
-------------------------------------------------------------------------
 212    0:00   0.00   64.0    86    6.2    78     8.2   967.5    0.00 
 212    0:10   0.00   64.5    84    5.4    91     9.4   967.5    0.00 
 212    0:20   0.00   64.8    81    4.8   129     8.0   967.5    0.00 
 212    0:30   0.00   65.0    79    6.8   115     9.2   967.5    0.00 
 212    0:40   0.00   65.1    80    5.4   110     8.6   967.5    0.00 
 212    0:50   0.00   65.0    81    5.8   147     9.8   967.4    0.00 
 212    1:00   0.00   64.7    82    8.4   173     9.5   967.3    0.00 
 212    1:10   0.00   64.3    82   10.2   174    12.5   967.2    0.00 
 212    1:20   0.00   64.1    82   10.4   175    12.3   967.0    0.00 
 212    1:30   0.00   63.9    82   10.2   176    12.1   966.9    0.00 
 212    1:40   0.00   63.7    82    9.6   171    11.1   966.9    0.00 
 212    1:50   0.00   63.6    82    8.6   178    10.5   966.9    0.00 
 212    2:00   0.00   63.3    83    5.4   184     8.0   966.8    0.00 
 212    2:10   0.00   63.1    84    2.3    18     5.2   966.9    0.00 
 212    2:20   0.00   63.0    84    2.6    47     4.5   967.0    0.00 
 212    2:30   0.00   63.1    84    1.5    66     3.0   966.9    0.00 
 212    2:40   0.00   63.2    84    2.9   190     4.2   966.9    0.00 
 212    2:50   0.00   63.7    82    4.3   196     7.0   966.9    0.00 
 212    3:00   0.00   63.2    84    8.7   185     9.6   966.8    0.00 
 212    3:10   0.00   62.5    87    8.1   191     9.0   966.7    0.00 
 212    3:20   0.00   62.2    90    4.4   156     7.0   966.8    0.00 
 212    3:30   0.00   62.1    93    4.8   138     7.7   966.9    0.00 
 212    3:40   0.00   61.9    96    6.0   167     7.5   966.8    0.00 
 212    3:50   0.00   61.8    97    3.2   170     4.4   966.7    0.00 
 212    4:00   0.00   61.7    98    1.9   139     3.7   966.6    0.00 
 212    4:10   0.00   61.6    98    3.5   134     4.4   966.7    0.00 
 212    4:20   0.00   61.5    98    3.9   149     5.2   966.7    0.00 
 212    4:30   0.00   61.4    98    3.6   144     5.2   966.7    0.00 
 212    4:40   0.00   61.4    98    4.7   161     7.0   966.8    0.00 
 212    4:50   0.00   61.5    98    4.9   179     6.2   966.8    0.00 
 212    5:00   0.00   61.4    99    4.2   155     6.1   966.9    0.00 
 212    5:10   0.00   61.4    99    3.9   101     6.6   967.0    0.00 
 212    5:20   0.00   61.3    98    4.7    37     6.1   967.0    0.00 
 212    5:30   0.01   61.5    97    3.9    41     5.8   967.1    0.00 
 212    5:40   0.02   61.5    96    6.0    31     7.3   967.2    0.00 
 212    5:50   0.04   61.4    98    4.4    34     6.4   967.2    0.00 
 212    6:00   0.03   61.7    98    5.1    44     7.0   967.4    0.00 
 212    6:10   0.03   61.9    98    4.8    48     8.2   967.5    0.00 
 212    6:20   0.04   62.0    98    5.9    44     9.5   967.6    0.00 
 212    6:30   0.06   62.2    99    4.4    42     9.3   967.6    0.00 
 212    6:40   0.08   62.6    98    3.6    43     8.6   967.7    0.00 
 212    6:50   0.10   62.9    98    4.4    44     9.1   967.8    0.00 
 212    7:00   0.08   63.2    97    3.9    50     7.7   967.9    0.00 
 212    7:10   0.08   63.7    94    2.9    52     5.4   967.9    0.00 
 212    7:20   0.10   64.3    92    2.5    68     4.5   967.9    0.00 
 212    7:30   0.12   65.4    90    2.1    58     4.5   968.0    0.00 
 212    7:40   0.08   65.5    90    3.0    42     6.6   968.0    0.00 
 212    7:50   0.10   65.1    90    2.4    48     5.9   968.0    0.00 
 212    8:00   0.10   65.3    90    2.0    59     4.2   968.0    0.00 
 212    8:10   0.33   66.2    88    2.5   107     5.4   967.9    0.00 
 212    8:20   0.48   68.8    81    2.4   114     5.6   967.8    0.00 
 212    8:30   0.54   71.0    75    4.0   111     9.4   967.8    0.00 
 212    8:40   0.47   71.7    74    4.1   103     9.3   967.9    0.00 
 212    8:50   0.48   72.7    72    4.9    98     9.5   967.9    0.00 
 212    9:00   0.34   72.7    72    4.1    79     7.8   968.0    0.00 
 212    9:10   0.29   71.1    76    2.9    56     5.5   967.9    0.00 
 212    9:20   0.32   70.5    78    3.6    46     8.7   967.9    0.00 
 212    9:30   0.27   70.2    78    4.1    71     6.7   967.9    0.00 
 212    9:40   0.27   70.9    77    3.3    68     6.4   967.9    0.00 
 212    9:50   0.27   70.8    77    3.4    74     5.3   967.9    0.00 
 212   10:00   0.26   70.1    79    4.2    84     7.3   968.0    0.00 
 212   10:10   0.29   70.2    80    2.7   114     6.5   967.9    0.00 
 212   10:20   0.39   71.8    77    3.4   125     7.6   967.9    0.00 
 212   10:30   0.50   72.9    75    5.0   113     9.6   967.9    0.00 
 212   10:40   0.59   74.0    72    4.2   121     7.9   967.9    0.00 
 212   10:50   0.68   75.6    69    4.7   126     8.8   967.9    0.00 
 212   11:00   0.73   75.2    70    4.7   110     8.7   967.8    0.00 
 212   11:10   0.85   76.3    67    4.5   105     9.1   967.9    0.00 
 212   11:20   0.73   76.0    68    4.7    90     9.0   967.8    0.00 
 212   11:30   0.90   76.3    67    4.1   105     8.6   967.8    0.00 
 212   11:40   0.92   77.1    66    3.1    76     8.9   967.7    0.00 
 212   11:50   0.93   78.5    62    3.7    76     7.1   967.7    0.00 
 212   12:00   0.93   79.2    61    4.3    69     8.2   967.7    0.00 
 212   12:10   0.93   78.2    63    3.6    41     6.6   967.8    0.00 
 212   12:20   0.93   77.8    63    3.4    44     5.8   967.7    0.00 
 212   12:30   0.93   78.5    62    3.8    39     6.8   967.6    0.00 
 212   12:40   0.92   78.7    62    3.3    51     7.2   967.5    0.00 
 212   12:50   0.91   80.3    60    3.3    53     6.4   967.5    0.00 
 212   13:00   0.91   80.2    60    3.7    86     6.9   967.6    0.00 
 212   13:10   0.90   81.6    57    3.9   110     7.7   967.6    0.00 
 212   13:20   0.89   81.3    58    3.9   109     8.2   967.5    0.00 
 212   13:30   0.87   82.2    56    3.9   118     8.2   967.4    0.00 
 212   13:40   0.86   81.6    57    3.3    85     7.5   967.4    0.00 
 212   13:50   0.85   81.7    57    3.2    79     6.1   967.3    0.00 
 212   14:00   0.83   81.6    57    3.1    59     5.5   967.3    0.00 
 212   14:10   0.81   80.1    59    3.4    51     6.8   967.2    0.00 
 212   14:20   0.80   78.9    61    4.7    41     8.5   967.1    0.00 
 212   14:30   0.77   77.5    63    6.1    39     9.3   967.0    0.00 
 212   14:40   0.75   75.3    67    7.0    36    11.1   966.8    0.00 
 212   14:50   0.73   74.5    68    7.4    32    10.4   966.7    0.00 
 212   15:00   0.70   73.5    69    8.1    33    10.8   966.5    0.00 
 212   15:10   0.67   72.2    71    8.1    35    10.4   966.4    0.00 
 212   15:20   0.64   71.3    72    8.7    33    11.9   966.2    0.00 
 212   15:30   0.61   71.6    71    7.1    33    10.8   966.1    0.00 
 212   15:40   0.58   72.8    69    5.7    35     8.1   966.1    0.00 
 212   15:50   0.55   74.2    67    5.7    33     8.6   966.1    0.00 
 212   16:00   0.52   73.5    68    6.7    30     9.6   966.0    0.00 
 212   16:10   0.49   72.1    71    7.8    28    10.9   965.9    0.00 
 212   16:20   0.46   71.2    73    8.0    29    11.2   965.7    0.00 
 212   16:30   0.42   71.5    72    8.1    27    11.0   965.6    0.00 
 212   16:40   0.39   70.7    74    9.0    27    11.2   965.5    0.00 
 212   16:50   0.36   70.4    74    8.8    25    10.5   965.3    0.00 
 212   17:00   0.32   70.3    74    8.9    26    11.6   965.1    0.00 
 212   17:10   0.29   69.9    75    9.4    24    11.1   965.0    0.00 
 212   17:20   0.26   68.8    77   10.4    24    11.5   964.8    0.00 
 212   17:30   0.22   67.8    80    9.8    27    11.3   964.7    0.00 
 212   17:40   0.19   67.1    82    9.2    16    10.4   964.6    0.00 
 212   17:50   0.16   66.6    83    7.8    23     8.9   964.5    0.00 
 212   18:00   0.13   66.4    84    8.1    12     9.8   964.6    0.00 
 212   18:10   0.10   66.7    82    7.8     6     9.9   964.6    0.00 
 212   18:20   0.08   65.6    85    7.2    11     8.8   964.7    0.00 
 212   18:30   0.05   65.6    85    6.8   346     8.4   964.8    0.00 
 212   18:40   0.03   67.4    79    7.4   333     8.8   964.9    0.00 
 212   18:50   0.01   68.4    76    7.7   326     8.9   965.0    0.00 
 212   19:00   0.00   68.3    76    8.6   332     9.7   965.1    0.00 
 212   19:10   0.00   68.6    76    9.8   342    10.4   965.1    0.00 
 212   19:20   0.00   69.0    75    9.6   348    10.7   965.3    0.00 
 212   19:30   0.00   69.0    75    9.1   352    10.1   965.3    0.00 
 212   19:40   0.00   68.2    77    8.7   357     9.9   965.4    0.00 
 212   19:50   0.00   67.8    78    9.5     5    10.9   965.5    0.00 
 212   20:00   0.00   67.6    80    8.9    18    10.4   965.5    0.00 
 212   20:10   0.00   66.7    82    9.2    23    10.4   965.7    0.00 
 212   20:20   0.00   66.4    83    8.9    22     9.8   965.7    0.00 
 212   20:30   0.00   66.3    84    9.6    22    10.3   965.9    0.00 
 212   20:40   0.00   66.1    84    9.1    15     9.8   965.9    0.00 
 212   20:50   0.00   66.7    84    8.8    15     9.4   966.0    0.00 
 212   21:00   0.00   67.0    83    7.9    17     8.6   966.0    0.00 
 212   21:10   0.00   67.3    82    8.2    17     9.3   966.1    0.00 
 212   21:20   0.00   67.6    82    8.9     6    10.1   966.1    0.00 
 212   21:30   0.00   68.2    80    9.1     0    10.1   966.1    0.00 
 212   21:40   0.00   68.3    80    8.9     2    10.4   966.0    0.00 
 212   21:50   0.00   68.4    80    9.7     3    11.5   966.0    0.00 
 212   22:00   0.00   68.4    79   10.7     6    12.6   966.0    0.00 
 212   22:10   0.00   68.7    78   10.6     1    11.8   965.9    0.00 
 212   22:20   0.00   68.4    79    9.6     5    10.9   965.8    0.00 
 212   22:30   0.00   68.6    76    9.5   358    11.0   965.7    0.00 
 212   22:40   0.00   68.6    77    7.8   356     9.5   965.7    0.00 
 212   22:50   0.00   69.6    74    7.0   336     8.0   965.7    0.00 
 212   23:00   0.00   71.6    67    6.9   333     7.4   965.7    0.00 
 212   23:10   0.00   71.7    68    6.3   347     7.1   965.6    0.00 
 212   23:20   0.00   69.7    74    5.2   355     5.7   965.5    0.00 
 212   23:30   0.00   69.0    76    5.2    26     6.1   965.5    0.00 

Return to Valley Peak, Santa Cruz Island Reserve graphs page.


Western Regional Climate Center,wrcc@dri.edu